Durango, Spain
Current Conditions -  °F | °C
As of 11:30 PM on Saturday 20 Dec 2014 (Local Time) from LEBB Reporting Station
Haze Haze  
Wind Chill: 55°   Ceiling: 2200
Heat Index: 55°   Visibility: 3mi
Dew Point: 54°   Wind: 0mph
Humidity: 94%   Direction: NA
Pressure: 30.59"   Gusts: NA
Location:  43.17°N, 2.63°W
Report Text: LEBB 202230Z 00000KT 5000 BR FEW004 SCT010 BKN022 13/12 Q1036 NOSIG
Loading
Personal Weather Stations






























Interactive Weather Map New forecast layout! Learn more

10-Day Weather Forecast

Advertisements
Track Severe Weather on mobile